createdAt,value
2022-10-31T00:01:55.578Z,10.60
2022-10-31T00:04:25.366Z,7.60
2022-10-31T00:06:53.579Z,10.90
2022-10-31T00:09:21.912Z,8.30
2022-10-31T00:11:50.082Z,16.67
2022-10-31T00:14:18.270Z,9.53
2022-10-31T00:16:46.440Z,7.30
2022-10-31T00:19:14.574Z,10.77
2022-10-31T00:21:44.315Z,10.57
2022-10-31T00:24:13.365Z,12.70
2022-10-31T00:26:41.807Z,6.43
2022-10-31T00:29:09.997Z,8.70
2022-10-31T00:31:38.875Z,11.10
2022-10-31T00:34:07.422Z,8.20
2022-10-31T00:36:37.551Z,11.37
2022-10-31T00:39:07.284Z,12.30
2022-10-31T00:41:35.555Z,9.07
2022-10-31T00:44:03.806Z,10.57
2022-10-31T00:46:33.054Z,10.43
2022-10-31T00:49:01.404Z,8.10
2022-10-31T00:51:29.590Z,7.70
2022-10-31T00:53:57.931Z,5.80
2022-10-31T00:56:27.811Z,6.43
2022-10-31T00:58:56.214Z,6.50
2022-10-31T01:01:24.455Z,7.93
2022-10-31T01:03:53.505Z,7.50
2022-10-31T01:06:22.056Z,6.57
2022-10-31T01:08:50.458Z,8.93
2022-10-31T01:11:22.251Z,10.00
2022-10-31T01:13:53.077Z,11.87
2022-10-31T01:16:24.490Z,10.23
2022-10-31T01:18:53.855Z,5.90
2022-10-31T01:21:23.446Z,10.40
2022-10-31T01:23:51.931Z,4.90
2022-10-31T01:26:21.926Z,6.00
2022-10-31T01:28:53.222Z,9.37
2022-10-31T01:31:23.349Z,4.90
2022-10-31T01:33:51.834Z,8.40
2022-10-31T01:36:22.691Z,6.57
2022-10-31T01:38:54.213Z,5.80
2022-10-31T01:41:24.356Z,6.87
2022-10-31T01:43:58.222Z,6.93
2022-10-31T01:46:29.642Z,10.50
2022-10-31T01:48:59.775Z,8.97
2022-10-31T01:51:31.520Z,9.10
2022-10-31T01:54:03.817Z,13.27
2022-10-31T01:56:33.053Z,8.70
2022-10-31T01:59:06.998Z,7.30
2022-10-31T02:01:35.869Z,9.57
2022-10-31T02:04:04.096Z,7.77
2022-10-31T02:06:39.622Z,7.40
2022-10-31T02:09:08.306Z,4.50
2022-10-31T02:11:38.491Z,8.00
2022-10-31T02:14:08.034Z,19.47
2022-10-31T02:16:36.231Z,6.90
2022-10-31T02:19:06.390Z,7.77
2022-10-31T02:21:41.646Z,11.20
2022-10-31T02:24:42.745Z,6.83
2022-10-31T02:27:29.467Z,10.20
2022-10-31T02:30:09.854Z,8.37
2022-10-31T02:32:50.225Z,11.93
2022-10-31T02:35:30.480Z,8.93
2022-10-31T02:38:10.217Z,9.17
2022-10-31T02:40:51.858Z,13.33
2022-10-31T02:43:33.750Z,6.43
2022-10-31T02:46:09.623Z,6.90
2022-10-31T02:48:42.014Z,10.13
2022-10-31T02:51:12.176Z,16.10
2022-10-31T02:53:40.711Z,9.73
2022-10-31T02:56:14.722Z,12.63
2022-10-31T02:58:47.195Z,9.07
2022-10-31T03:01:27.049Z,11.17
2022-10-31T03:04:29.986Z,9.57
2022-10-31T03:07:05.656Z,13.67
2022-10-31T03:09:42.424Z,11.43
2022-10-31T03:12:15.978Z,7.50
2022-10-31T03:14:54.193Z,16.93
2022-10-31T03:17:28.588Z,11.40
2022-10-31T03:20:01.087Z,6.47
2022-10-31T03:22:32.431Z,7.37
2022-10-31T03:25:03.392Z,7.93
2022-10-31T03:27:35.837Z,11.10
2022-10-31T03:30:08.623Z,6.60
2022-10-31T03:32:53.825Z,9.50
2022-10-31T03:35:27.842Z,8.70
2022-10-31T03:37:58.521Z,12.13
2022-10-31T03:40:30.001Z,10.47
2022-10-31T03:43:03.166Z,8.60
2022-10-31T03:45:37.959Z,16.23
2022-10-31T03:48:06.634Z,9.43
2022-10-31T03:50:43.386Z,8.30
2022-10-31T03:53:17.027Z,6.93
2022-10-31T03:55:51.638Z,7.27
2022-10-31T03:58:26.234Z,8.97
2022-10-31T04:00:59.632Z,8.27
2022-10-31T04:03:30.775Z,9.03
2022-10-31T04:06:06.330Z,8.53
2022-10-31T04:08:40.158Z,5.50
2022-10-31T04:11:11.634Z,13.10
2022-10-31T04:13:44.430Z,15.57
2022-10-31T04:16:17.725Z,10.47
2022-10-31T04:18:46.639Z,8.73
2022-10-31T04:21:16.494Z,8.13
2022-10-31T04:23:44.758Z,7.73
2022-10-31T04:26:20.837Z,9.30
2022-10-31T04:28:49.090Z,12.83
2022-10-31T04:31:17.530Z,10.43
2022-10-31T04:33:47.898Z,12.50
2022-10-31T04:36:18.003Z,9.73
2022-10-31T04:38:46.153Z,10.37
2022-10-31T04:41:37.285Z,7.93
2022-10-31T04:44:12.188Z,11.40
2022-10-31T04:46:41.173Z,9.73
2022-10-31T04:49:10.493Z,7.80
2022-10-31T04:51:40.473Z,9.33
2022-10-31T04:54:10.414Z,5.90
2022-10-31T04:56:56.677Z,11.10
2022-10-31T04:59:25.330Z,10.10
2022-10-31T05:01:55.603Z,10.80
2022-10-31T05:04:34.150Z,8.43
2022-10-31T05:07:04.081Z,10.73
2022-10-31T05:09:32.393Z,10.63
2022-10-31T05:12:00.590Z,9.07
2022-10-31T05:14:54.682Z,15.60
2022-10-31T05:17:48.954Z,15.90
2022-10-31T05:20:37.366Z,10.13
2022-10-31T05:23:18.975Z,11.20
2022-10-31T05:25:48.298Z,11.00
2022-10-31T05:28:16.691Z,10.27
2022-10-31T05:30:45.371Z,12.13
2022-10-31T05:33:17.214Z,9.50
2022-10-31T05:36:04.531Z,12.70
2022-10-31T05:38:54.597Z,6.97
2022-10-31T05:41:27.346Z,11.67
2022-10-31T05:44:04.895Z,7.63
2022-10-31T05:46:37.885Z,11.63
2022-10-31T05:49:11.913Z,8.77
2022-10-31T05:52:18.513Z,10.53
2022-10-31T05:55:00.551Z,13.77
2022-10-31T05:57:35.764Z,8.30
2022-10-31T06:00:09.183Z,9.20
2022-10-31T06:02:49.638Z,6.90
2022-10-31T06:05:34.466Z,7.97
2022-10-31T06:08:03.494Z,8.97
2022-10-31T06:10:34.077Z,7.63
2022-10-31T06:13:02.349Z,10.37
2022-10-31T06:15:36.605Z,9.13
2022-10-31T06:18:06.517Z,9.00
2022-10-31T06:20:47.154Z,14.87
2022-10-31T06:23:15.419Z,13.93
2022-10-31T06:25:50.835Z,8.30
2022-10-31T06:28:19.312Z,12.40
2022-10-31T06:30:57.524Z,10.47
2022-10-31T06:33:25.805Z,11.43
2022-10-31T06:36:03.076Z,9.63
2022-10-31T06:38:31.208Z,16.80
2022-10-31T06:41:04.849Z,10.50
2022-10-31T06:43:41.046Z,15.20
2022-10-31T06:46:30.868Z,17.53
2022-10-31T06:49:22.535Z,17.87
2022-10-31T06:52:02.244Z,22.27
2022-10-31T06:54:35.988Z,16.03
2022-10-31T06:57:34.829Z,17.07
2022-10-31T07:00:05.655Z,18.17
2022-10-31T07:03:00.212Z,18.30
2022-10-31T07:05:38.642Z,16.80
2022-10-31T07:08:09.576Z,14.90
2022-10-31T07:10:40.829Z,21.20
2022-10-31T07:13:14.048Z,13.90
2022-10-31T07:15:48.262Z,20.33
2022-10-31T07:18:16.674Z,14.07
2022-10-31T07:20:45.023Z,15.40
2022-10-31T07:23:15.539Z,16.00
2022-10-31T07:25:48.531Z,18.40
2022-10-31T07:28:21.468Z,13.03
2022-10-31T07:30:59.266Z,9.40
2022-10-31T07:33:28.402Z,10.10
2022-10-31T07:36:20.077Z,17.57
2022-10-31T07:38:50.423Z,10.03
2022-10-31T07:41:18.907Z,9.07
2022-10-31T07:43:48.344Z,13.57
2022-10-31T07:46:24.761Z,13.17
2022-10-31T07:49:16.378Z,13.00
2022-10-31T07:52:06.479Z,20.50
2022-10-31T07:54:53.907Z,18.60
2022-10-31T07:57:25.601Z,11.00
2022-10-31T07:59:54.787Z,13.57
2022-10-31T08:02:26.957Z,19.07
2022-10-31T08:05:21.439Z,15.20
2022-10-31T08:08:17.527Z,19.17
2022-10-31T08:18:42.035Z,19.40
2022-10-31T08:21:15.267Z,15.67
2022-10-31T08:23:47.175Z,16.03
2022-10-31T08:26:25.799Z,14.27
2022-10-31T08:28:57.603Z,15.60
2022-10-31T08:31:33.487Z,14.57
2022-10-31T08:34:57.493Z,16.20
2022-10-31T08:38:14.402Z,20.73
2022-10-31T08:40:44.289Z,16.83
2022-10-31T08:43:20.071Z,20.20
2022-10-31T08:45:54.723Z,18.00
2022-10-31T08:48:28.371Z,19.03
2022-10-31T08:50:59.663Z,16.67
2022-10-31T08:53:29.663Z,16.43
2022-10-31T08:56:20.602Z,26.93
2022-10-31T08:58:48.867Z,28.97
2022-10-31T09:01:17.896Z,13.00
2022-10-31T09:03:46.662Z,26.17
2022-10-31T09:06:16.410Z,11.80
2022-10-31T09:08:47.301Z,15.53
2022-10-31T09:11:33.554Z,17.97
2022-10-31T09:14:14.602Z,10.40
2022-10-31T09:17:15.008Z,13.40
2022-10-31T09:20:06.508Z,23.20
2022-10-31T09:22:39.634Z,15.07
2022-10-31T09:25:08.719Z,16.20
2022-10-31T09:27:36.984Z,12.43
2022-10-31T09:30:05.524Z,13.10
2022-10-31T09:32:35.006Z,8.47
2022-10-31T09:37:42.449Z,15.03
2022-10-31T09:40:14.120Z,13.80
2022-10-31T09:43:06.319Z,17.13
2022-10-31T09:46:05.167Z,16.20
2022-10-31T09:49:11.172Z,18.50
2022-10-31T09:51:57.300Z,16.50
2022-10-31T09:54:54.965Z,14.63
2022-10-31T09:57:30.963Z,14.13
2022-10-31T10:03:46.837Z,23.97
2022-10-31T10:07:34.965Z,25.83
2022-10-31T10:11:00.846Z,15.00
2022-10-31T10:14:16.799Z,10.63
2022-10-31T10:17:22.029Z,11.57
2022-10-31T10:20:29.457Z,14.80
2022-10-31T10:23:15.294Z,9.47
2022-10-31T10:25:52.331Z,12.73
2022-10-31T10:28:27.280Z,11.00
2022-10-31T10:31:08.115Z,11.43
2022-10-31T10:33:44.384Z,25.70
2022-10-31T10:40:03.499Z,10.70
2022-10-31T10:42:53.486Z,10.83
2022-10-31T10:45:40.246Z,12.60
2022-10-31T10:48:18.876Z,14.47
2022-10-31T10:50:52.633Z,15.13
2022-10-31T10:53:39.378Z,11.67
2022-10-31T10:56:16.577Z,14.83
2022-10-31T10:58:46.362Z,19.63
2022-10-31T11:01:17.193Z,16.47
2022-10-31T11:03:47.060Z,21.53
2022-10-31T11:06:23.190Z,14.17
2022-10-31T11:08:51.920Z,14.77
2022-10-31T11:11:30.912Z,15.40
2022-10-31T11:14:06.275Z,14.50
2022-10-31T11:16:41.390Z,14.93
2022-10-31T11:19:24.608Z,20.43
2022-10-31T11:21:57.093Z,13.20
2022-10-31T11:24:45.399Z,17.00
2022-10-31T11:27:25.303Z,12.10
2022-10-31T11:30:00.625Z,12.93
2022-10-31T11:32:30.823Z,13.53
2022-10-31T11:35:03.247Z,25.73
2022-10-31T11:37:36.512Z,10.83
2022-10-31T11:40:07.931Z,12.03
2022-10-31T11:42:41.807Z,14.63
2022-10-31T11:45:17.713Z,12.13
2022-10-31T11:47:49.814Z,14.73
2022-10-31T11:50:25.381Z,12.77
2022-10-31T11:55:34.622Z,10.70
2022-10-31T11:58:03.412Z,10.80
2022-10-31T12:00:33.767Z,13.57
2022-10-31T12:03:18.506Z,18.10
2022-10-31T12:05:53.572Z,11.47
2022-10-31T12:08:25.350Z,13.60
2022-10-31T12:11:18.032Z,9.60
2022-10-31T12:14:04.984Z,14.53
2022-10-31T12:16:39.110Z,11.80
2022-10-31T12:19:35.458Z,9.10
2022-10-31T12:22:14.333Z,10.90
2022-10-31T12:25:11.024Z,24.83
2022-10-31T12:28:02.222Z,15.73
2022-10-31T12:30:39.369Z,17.03
2022-10-31T12:33:35.710Z,13.63
2022-10-31T12:36:17.382Z,13.20
2022-10-31T12:39:03.202Z,11.40
2022-10-31T12:41:47.020Z,25.37
2022-10-31T12:44:31.825Z,19.23
2022-10-31T12:47:15.382Z,15.57
2022-10-31T12:49:55.722Z,18.83
2022-10-31T12:52:45.062Z,19.63
2022-10-31T12:55:28.201Z,16.53
2022-10-31T12:58:03.399Z,11.70
2022-10-31T13:00:35.139Z,18.00
2022-10-31T13:03:19.927Z,12.87
2022-10-31T13:05:51.580Z,13.80
2022-10-31T13:08:22.349Z,18.73
2022-10-31T13:10:57.883Z,14.03
2022-10-31T13:13:29.350Z,13.53
2022-10-31T13:16:02.241Z,23.70
2022-10-31T13:18:34.206Z,10.93
2022-10-31T13:21:10.158Z,14.40
2022-10-31T13:23:56.797Z,13.87
2022-10-31T13:26:39.004Z,10.97
2022-10-31T13:29:16.685Z,17.87
2022-10-31T13:31:45.338Z,18.90
2022-10-31T13:34:23.368Z,14.77
2022-10-31T13:37:00.390Z,25.30
2022-10-31T13:39:41.684Z,16.90
2022-10-31T13:42:19.644Z,18.70
2022-10-31T13:44:47.837Z,18.97
2022-10-31T13:47:28.031Z,18.50
2022-10-31T13:50:07.917Z,16.83
2022-10-31T13:52:36.086Z,12.90
2022-10-31T13:55:04.243Z,19.07
2022-10-31T13:57:37.542Z,20.63
2022-10-31T14:00:09.288Z,15.33
2022-10-31T14:02:48.401Z,30.97
2022-10-31T14:05:25.943Z,27.93
2022-10-31T14:07:54.617Z,22.87
2022-10-31T14:10:27.786Z,14.43
2022-10-31T14:13:07.277Z,17.27
2022-10-31T14:15:36.550Z,18.10
2022-10-31T14:18:07.418Z,28.90
2022-10-31T14:20:40.036Z,20.43
2022-10-31T14:23:28.473Z,22.80
2022-10-31T14:26:08.263Z,18.67
2022-10-31T14:28:38.399Z,15.10
2022-10-31T14:31:30.294Z,17.83
2022-10-31T14:33:58.499Z,14.30
2022-10-31T14:36:36.718Z,10.50
2022-10-31T14:39:13.535Z,15.17
2022-10-31T14:41:56.969Z,20.67
2022-10-31T14:44:48.056Z,16.77
2022-10-31T14:47:26.691Z,20.07
2022-10-31T14:50:26.669Z,24.03
2022-10-31T14:52:59.435Z,18.93
2022-10-31T14:55:29.431Z,17.70
2022-10-31T14:58:02.206Z,18.80
2022-10-31T15:00:34.589Z,19.73
2022-10-31T15:03:11.694Z,15.80
2022-10-31T15:05:44.719Z,18.20
2022-10-31T15:08:28.282Z,20.73
2022-10-31T15:10:56.465Z,21.50
2022-10-31T15:13:25.062Z,18.40
2022-10-31T15:15:57.537Z,12.40
2022-10-31T15:18:27.514Z,14.57
2022-10-31T15:20:57.674Z,13.80
2022-10-31T15:23:27.959Z,16.27
2022-10-31T15:26:02.100Z,12.77
2022-10-31T15:28:32.132Z,20.73
2022-10-31T15:31:04.070Z,16.90
2022-10-31T15:33:38.208Z,19.43
2022-10-31T15:36:08.508Z,21.53
2022-10-31T15:38:36.768Z,18.27
2022-10-31T15:41:08.834Z,16.93
2022-10-31T15:43:40.966Z,14.63
2022-10-31T15:46:11.800Z,17.40
2022-10-31T15:48:41.606Z,16.73
2022-10-31T15:51:10.035Z,13.20
2022-10-31T15:53:43.908Z,13.30
2022-10-31T15:56:16.455Z,13.60
2022-10-31T15:58:48.294Z,23.30
2022-10-31T16:01:26.013Z,17.10
2022-10-31T16:04:22.772Z,15.20
2022-10-31T16:07:01.717Z,17.57
2022-10-31T16:09:30.246Z,14.87
2022-10-31T16:12:00.580Z,17.13
2022-10-31T16:14:32.818Z,16.33
2022-10-31T16:17:03.986Z,9.97
2022-10-31T16:19:36.017Z,15.80
2022-10-31T16:22:07.550Z,13.17
2022-10-31T16:24:47.362Z,10.00
2022-10-31T16:27:24.384Z,11.77
2022-10-31T16:29:52.797Z,15.93
2022-10-31T16:32:32.358Z,13.87
2022-10-31T16:35:20.533Z,12.83
2022-10-31T16:37:48.729Z,9.83
2022-10-31T16:40:18.717Z,14.90
2022-10-31T16:42:49.040Z,13.37
2022-10-31T16:45:20.135Z,13.63
2022-10-31T16:47:50.507Z,12.60
2022-10-31T16:50:21.991Z,15.37
2022-10-31T16:55:46.016Z,15.67
2022-10-31T16:58:19.883Z,17.70
2022-10-31T17:00:48.094Z,16.33
2022-10-31T17:03:18.339Z,18.90
2022-10-31T17:05:46.545Z,15.40
2022-10-31T17:08:14.711Z,21.00
2022-10-31T17:10:44.880Z,17.97
2022-10-31T17:13:17.633Z,15.37
2022-10-31T17:15:48.178Z,25.03
2022-10-31T17:18:24.271Z,18.40
2022-10-31T17:20:59.337Z,20.40
2022-10-31T17:23:28.234Z,29.53
2022-10-31T17:25:56.808Z,24.90
2022-10-31T17:28:26.470Z,29.07
2022-10-31T17:30:59.163Z,27.13
2022-10-31T17:33:29.039Z,20.10
2022-10-31T17:35:57.437Z,27.70
2022-10-31T17:38:25.519Z,25.40
2022-10-31T17:40:53.582Z,27.93
2022-10-31T17:43:21.883Z,23.47
2022-10-31T17:45:50.251Z,20.43
2022-10-31T17:48:18.493Z,25.30
2022-10-31T17:50:48.136Z,17.27
2022-10-31T17:53:17.727Z,20.13
2022-10-31T17:55:45.917Z,19.40
2022-10-31T17:58:14.334Z,19.10
2022-10-31T18:00:51.967Z,17.87
2022-10-31T18:03:23.377Z,20.90
2022-10-31T18:06:00.569Z,28.43
2022-10-31T18:08:30.344Z,28.30
2022-10-31T18:11:00.841Z,26.77
2022-10-31T18:13:29.738Z,25.53
2022-10-31T18:15:57.869Z,25.03
2022-10-31T18:18:26.544Z,25.77
2022-10-31T18:20:59.917Z,23.93
2022-10-31T18:23:28.250Z,19.83
2022-10-31T18:25:57.094Z,17.00
2022-10-31T18:28:27.009Z,25.07
2022-10-31T18:30:56.121Z,26.67
2022-10-31T18:33:24.331Z,31.03
2022-10-31T18:35:52.717Z,33.10
2022-10-31T18:38:22.316Z,25.00
2022-10-31T18:40:52.389Z,25.77
2022-10-31T18:43:20.606Z,25.33
2022-10-31T18:45:52.318Z,27.30
2022-10-31T18:48:23.632Z,27.60
2022-10-31T18:50:51.984Z,22.40
2022-10-31T18:53:21.674Z,26.20
2022-10-31T18:55:50.433Z,25.53
2022-10-31T18:58:19.005Z,20.73
2022-10-31T19:00:48.632Z,23.63
2022-10-31T19:03:20.728Z,21.27
2022-10-31T19:05:52.262Z,22.63
2022-10-31T19:08:22.081Z,30.40
2022-10-31T19:10:50.327Z,21.80
2022-10-31T19:13:18.809Z,23.43
2022-10-31T19:15:47.076Z,20.60
2022-10-31T19:18:15.546Z,17.90
2022-10-31T19:20:43.737Z,15.30
2022-10-31T19:23:11.961Z,15.40
2022-10-31T19:25:41.573Z,17.80
2022-10-31T19:28:09.784Z,14.13
2022-10-31T19:30:38.255Z,22.03
2022-10-31T19:33:06.911Z,27.00
2022-10-31T19:35:35.058Z,20.80
2022-10-31T19:38:03.733Z,19.20
2022-10-31T19:40:32.239Z,30.60
2022-10-31T19:43:01.791Z,23.67
2022-10-31T19:45:30.023Z,26.20
2022-10-31T19:47:58.340Z,22.13
2022-10-31T19:50:27.775Z,25.50
2022-10-31T19:52:56.284Z,23.67
2022-10-31T19:55:24.454Z,23.17
2022-10-31T19:58:07.873Z,29.70
2022-10-31T20:00:38.938Z,21.97
2022-10-31T20:03:07.726Z,23.10
2022-10-31T20:05:41.338Z,16.30
2022-10-31T20:08:09.884Z,17.87
2022-10-31T20:10:38.248Z,23.80
2022-10-31T20:13:06.592Z,17.50
2022-10-31T20:15:37.062Z,17.67
2022-10-31T20:18:05.380Z,15.70
2022-10-31T20:20:34.113Z,21.67
2022-10-31T20:23:02.891Z,20.47
2022-10-31T20:25:33.213Z,26.83
2022-10-31T20:28:01.959Z,18.63
2022-10-31T20:30:30.621Z,25.33
2022-10-31T20:33:00.113Z,27.80
2022-10-31T20:35:28.336Z,26.67
2022-10-31T20:37:57.251Z,19.67
2022-10-31T20:40:25.552Z,24.03
2022-10-31T20:42:53.639Z,21.10
2022-10-31T20:45:22.006Z,19.13
2022-10-31T20:47:50.424Z,16.47
2022-10-31T20:50:20.297Z,17.33
2022-10-31T20:52:48.518Z,15.60
2022-10-31T20:55:16.965Z,21.93
2022-10-31T20:57:45.291Z,24.77
2022-10-31T21:00:14.434Z,30.87
2022-10-31T21:02:43.723Z,25.80
2022-10-31T21:05:13.818Z,36.27
2022-10-31T21:07:43.684Z,25.10
2022-10-31T21:10:15.852Z,21.63
2022-10-31T21:12:45.506Z,24.80
2022-10-31T21:15:15.297Z,24.23
2022-10-31T21:17:44.072Z,31.13
2022-10-31T21:20:12.730Z,29.73
2022-10-31T21:22:41.210Z,27.87
2022-10-31T21:25:11.428Z,23.07
2022-10-31T21:27:40.004Z,21.97
2022-10-31T21:30:08.930Z,24.53
2022-10-31T21:32:37.550Z,18.10
2022-10-31T21:35:06.352Z,11.50
2022-10-31T21:37:34.632Z,21.60
2022-10-31T21:40:03.957Z,18.23
2022-10-31T21:42:33.574Z,25.80
2022-10-31T21:45:02.050Z,26.70
2022-10-31T21:47:30.279Z,26.20
2022-10-31T21:49:58.452Z,22.60
2022-10-31T21:52:26.635Z,19.80
2022-10-31T21:54:53.706Z,16.37
2022-10-31T21:59:51.601Z,17.40
2022-10-31T22:02:19.765Z,24.17
2022-10-31T22:04:50.272Z,24.33
2022-10-31T22:07:18.567Z,15.97
2022-10-31T22:09:47.466Z,24.13
2022-10-31T22:12:16.118Z,17.23
2022-10-31T22:14:44.673Z,16.30
2022-10-31T22:17:14.839Z,12.17
2022-10-31T22:19:43.102Z,20.57
2022-10-31T22:22:13.326Z,27.93
2022-10-31T22:24:41.809Z,27.70
2022-10-31T22:27:10.416Z,32.40
2022-10-31T22:29:38.793Z,19.70
2022-10-31T22:32:07.557Z,16.70
2022-10-31T22:34:37.254Z,24.07
2022-10-31T22:37:06.475Z,12.63
2022-10-31T22:39:35.091Z,18.67
2022-10-31T22:42:03.307Z,16.90
2022-10-31T22:44:31.573Z,19.13
2022-10-31T22:46:59.791Z,8.80
2022-10-31T22:49:28.003Z,13.60
2022-10-31T22:51:59.814Z,13.00
2022-10-31T22:54:28.588Z,17.23
2022-10-31T22:56:57.023Z,21.90
2022-10-31T22:59:25.639Z,26.40
2022-10-31T23:01:54.696Z,42.83
2022-10-31T23:04:23.266Z,27.80
2022-10-31T23:06:51.663Z,31.90
2022-10-31T23:09:21.603Z,38.97
2022-10-31T23:11:49.745Z,45.70
2022-10-31T23:14:21.146Z,54.90
2022-10-31T23:16:51.961Z,39.83
2022-10-31T23:19:22.742Z,44.87
2022-10-31T23:21:56.432Z,34.90
2022-10-31T23:24:28.888Z,31.23
2022-10-31T23:27:10.141Z,23.37
2022-10-31T23:29:45.250Z,25.47
2022-10-31T23:32:22.395Z,21.43
2022-10-31T23:34:52.033Z,21.03
2022-10-31T23:37:21.638Z,18.73
2022-10-31T23:39:52.583Z,15.07
2022-10-31T23:42:21.090Z,14.50
2022-10-31T23:44:49.643Z,14.67
2022-10-31T23:47:18.929Z,15.07
2022-10-31T23:49:47.693Z,16.57
2022-10-31T23:52:16.896Z,11.13
2022-10-31T23:54:45.825Z,12.47
2022-10-31T23:57:16.885Z,13.43
2022-10-31T23:59:45.364Z,11.93
